createdAt,value
2022-09-02T00:01:33.042Z,78.13
2022-09-02T00:04:05.920Z,70.77
2022-09-02T00:06:35.526Z,81.11
2022-09-02T00:09:07.303Z,79.70
2022-09-02T00:11:37.142Z,83.33
2022-09-02T00:14:11.038Z,83.59
2022-09-02T00:16:41.836Z,75.71
2022-09-02T00:19:09.082Z,82.34
2022-09-02T00:21:36.379Z,84.04
2022-09-02T00:24:06.098Z,82.96
2022-09-02T00:26:33.385Z,85.58
2022-09-02T00:29:01.308Z,84.31
2022-09-02T00:31:29.155Z,85.13
2022-09-02T00:33:57.061Z,83.95
2022-09-02T00:36:24.413Z,85.24
2022-09-02T00:38:52.857Z,76.66
2022-09-02T00:41:24.924Z,86.55
2022-09-02T00:43:59.598Z,92.17
2022-09-02T00:46:30.904Z,84.19
2022-09-02T00:49:16.712Z,76.20
2022-09-02T00:52:09.265Z,75.46
2022-09-02T00:54:46.095Z,91.03
2022-09-02T00:57:19.492Z,93.07
2022-09-02T01:02:31.621Z,93.35
2022-09-02T01:05:03.138Z,84.15
2022-09-02T01:07:34.673Z,82.80
2022-09-02T01:10:13.355Z,84.98
2022-09-02T01:12:42.380Z,77.81
2022-09-02T01:15:16.927Z,87.97
2022-09-02T01:17:49.409Z,83.72
2022-09-02T01:20:24.504Z,78.83
2022-09-02T01:22:55.105Z,83.16
2022-09-02T01:25:28.073Z,75.39
2022-09-02T01:28:11.290Z,86.42
2022-09-02T01:30:50.106Z,95.07
2022-09-02T01:33:19.944Z,87.25
2022-09-02T01:35:50.031Z,84.56
2022-09-02T01:38:19.254Z,80.71
2022-09-02T01:40:47.264Z,88.03
2022-09-02T01:43:20.248Z,75.51
2022-09-02T01:45:55.330Z,81.96
2022-09-02T01:48:25.016Z,86.13
2022-09-02T01:50:59.397Z,92.83
2022-09-02T01:53:28.887Z,86.64
2022-09-02T01:55:56.836Z,91.45
2022-09-02T01:58:24.325Z,88.47
2022-09-02T02:00:51.884Z,92.52
2022-09-02T02:03:19.856Z,92.95
2022-09-02T02:05:47.645Z,91.21
2022-09-02T02:08:17.411Z,94.23
2022-09-02T02:10:47.111Z,88.44
2022-09-02T02:13:14.820Z,81.67
2022-09-02T02:15:45.533Z,69.73
2022-09-02T02:18:13.419Z,92.35
2022-09-02T02:20:44.985Z,90.73
2022-09-02T02:23:12.976Z,92.30
2022-09-02T02:25:40.290Z,85.83
2022-09-02T02:28:07.754Z,87.73
2022-09-02T02:30:35.981Z,90.63
2022-09-02T02:33:04.433Z,78.10
2022-09-02T02:35:33.983Z,85.94
2022-09-02T02:38:03.877Z,87.84
2022-09-02T02:40:31.835Z,93.38
2022-09-02T02:43:00.950Z,81.02
2022-09-02T02:45:28.128Z,89.15
2022-09-02T02:47:56.720Z,88.17
2022-09-02T02:50:31.027Z,94.90
2022-09-02T02:53:02.628Z,85.85
2022-09-02T02:55:30.490Z,85.10
2022-09-02T02:57:57.675Z,87.01
2022-09-02T03:00:29.294Z,83.44
2022-09-02T03:02:59.983Z,97.59
2022-09-02T03:05:53.201Z,81.58
2022-09-02T03:08:21.859Z,83.23
2022-09-02T03:10:54.323Z,78.82
2022-09-02T03:13:26.817Z,93.76
2022-09-02T03:15:57.063Z,89.63
2022-09-02T03:18:25.006Z,91.95
2022-09-02T03:20:52.805Z,91.34
2022-09-02T03:23:20.717Z,90.60
2022-09-02T03:25:50.396Z,93.18
2022-09-02T03:28:27.079Z,82.56
2022-09-02T03:30:54.895Z,90.77
2022-09-02T03:33:24.443Z,83.88
2022-09-02T03:35:52.434Z,88.70
2022-09-02T03:38:19.845Z,93.57
2022-09-02T03:40:47.042Z,92.32
2022-09-02T03:43:14.962Z,92.38
2022-09-02T03:45:43.378Z,92.45
2022-09-02T03:48:14.302Z,91.92
2022-09-02T03:50:47.272Z,90.09
2022-09-02T03:53:19.856Z,86.53
2022-09-02T03:55:50.767Z,91.36
2022-09-02T03:58:21.049Z,70.47
2022-09-02T04:00:53.897Z,82.25
2022-09-02T04:03:23.235Z,93.49
2022-09-02T04:05:52.527Z,75.62
2022-09-02T04:09:04.647Z,89.21
2022-09-02T04:12:21.582Z,96.90
2022-09-02T04:15:24.436Z,80.42
2022-09-02T04:19:49.450Z,92.02
2022-09-02T04:23:19.788Z,85.99
2022-09-02T04:26:01.042Z,94.60
2022-09-02T04:29:25.166Z,93.34
2022-09-02T04:32:20.591Z,92.50
2022-09-02T04:36:01.088Z,91.92
2022-09-02T04:43:36.669Z,88.07
2022-09-02T04:54:38.076Z,91.50
2022-09-02T04:59:07.651Z,80.39
2022-09-02T05:04:10.062Z,86.42
2022-09-02T05:24:57.087Z,94.94
2022-09-02T05:28:29.076Z,80.62
2022-09-02T05:32:19.652Z,90.65
2022-09-02T05:35:51.649Z,94.26
2022-09-02T05:38:33.607Z,75.82
2022-09-02T05:41:17.553Z,85.24
2022-09-02T05:44:03.526Z,79.22
2022-09-02T05:46:46.721Z,88.81
2022-09-02T05:49:27.164Z,90.61
2022-09-02T05:52:10.085Z,79.08
2022-09-02T05:54:49.366Z,84.79
2022-09-02T05:57:28.081Z,84.70
2022-09-02T06:00:08.049Z,84.15
2022-09-02T06:02:47.860Z,76.65
2022-09-02T06:05:25.905Z,87.15
2022-09-02T06:08:04.663Z,87.03
2022-09-02T06:10:44.692Z,70.12
2022-09-02T06:13:24.138Z,76.18
2022-09-02T06:16:05.245Z,71.95
2022-09-02T06:18:46.420Z,70.54
2022-09-02T06:21:24.874Z,75.21
2022-09-02T06:24:06.829Z,71.53
2022-09-02T06:26:45.953Z,71.97
2022-09-02T06:29:26.038Z,62.98
2022-09-02T06:32:05.572Z,66.37
2022-09-02T06:34:46.505Z,70.85
2022-09-02T06:37:25.205Z,61.91
2022-09-02T06:39:56.182Z,62.44
2022-09-02T06:42:27.555Z,69.88
2022-09-02T06:45:14.839Z,72.64
2022-09-02T06:47:43.754Z,66.46
2022-09-02T06:50:11.421Z,72.66
2022-09-02T06:52:39.615Z,68.41
2022-09-02T06:55:10.539Z,69.90
2022-09-02T06:57:39.839Z,67.02
2022-09-02T07:00:11.741Z,67.54
2022-09-02T07:02:38.990Z,66.95
2022-09-02T07:05:10.079Z,65.56
2022-09-02T07:07:42.127Z,65.35
2022-09-02T07:10:15.139Z,65.33
2022-09-02T07:12:53.476Z,63.57
2022-09-02T07:15:21.057Z,63.20
2022-09-02T07:17:49.572Z,62.99
2022-09-02T07:20:25.185Z,63.05
2022-09-02T07:22:57.027Z,62.11
2022-09-02T07:25:26.637Z,61.54
2022-09-02T07:27:54.591Z,60.73
2022-09-02T07:30:23.489Z,60.48
2022-09-02T07:32:57.735Z,59.17
2022-09-02T07:35:28.880Z,58.85
2022-09-02T07:37:57.251Z,58.15
2022-09-02T07:40:24.684Z,58.24
2022-09-02T07:42:52.914Z,57.22
2022-09-02T07:45:22.236Z,56.85
2022-09-02T07:47:50.497Z,55.63
2022-09-02T07:50:21.513Z,55.56
2022-09-02T07:52:59.239Z,54.82
2022-09-02T07:55:30.982Z,55.08
2022-09-02T07:57:58.998Z,54.74
2022-09-02T08:00:27.664Z,53.93
2022-09-02T08:02:58.899Z,53.21
2022-09-02T08:05:33.919Z,53.65
2022-09-02T08:08:02.690Z,53.34
2022-09-02T08:10:31.280Z,53.00
2022-09-02T08:13:00.882Z,52.50
2022-09-02T08:15:30.300Z,51.31
2022-09-02T08:17:58.872Z,51.35
2022-09-02T08:20:26.650Z,49.29
2022-09-02T08:23:05.049Z,50.99
2022-09-02T08:25:40.764Z,50.04
2022-09-02T08:28:08.281Z,49.73
2022-09-02T08:30:35.703Z,49.07
2022-09-02T08:33:02.841Z,49.55
2022-09-02T08:35:29.935Z,48.34
2022-09-02T08:38:00.387Z,47.30
2022-09-02T08:40:38.347Z,47.28
2022-09-02T08:46:05.229Z,47.47
2022-09-02T08:51:52.739Z,46.49
2022-09-02T08:54:32.385Z,45.13
2022-09-02T08:56:59.786Z,44.49
2022-09-02T08:59:29.177Z,46.40
2022-09-02T09:08:15.724Z,44.79
2022-09-02T09:19:16.920Z,41.22
2022-09-02T09:21:45.026Z,41.99
2022-09-02T09:24:27.088Z,41.43
2022-09-02T09:26:55.992Z,41.17
2022-09-02T09:29:23.084Z,40.77
2022-09-02T09:31:57.957Z,41.06
2022-09-02T09:34:25.093Z,39.67
2022-09-02T09:36:54.660Z,40.76
2022-09-02T09:42:14.557Z,39.37
2022-09-02T09:47:25.559Z,39.13
2022-09-02T09:50:10.175Z,39.56
2022-09-02T09:52:38.169Z,38.10
2022-09-02T09:55:24.808Z,37.50
2022-09-02T09:57:54.459Z,38.01
2022-09-02T10:00:32.856Z,37.17
2022-09-02T10:03:04.946Z,36.36
2022-09-02T10:05:40.472Z,35.06
2022-09-02T10:11:08.374Z,34.07
2022-09-02T10:13:37.855Z,34.40
2022-09-02T10:16:27.148Z,33.91
2022-09-02T10:19:01.005Z,33.75
2022-09-02T10:21:50.908Z,34.28
2022-09-02T10:27:37.879Z,33.45
2022-09-02T10:30:23.881Z,33.22
2022-09-02T10:35:54.460Z,32.53
2022-09-02T10:44:32.619Z,32.11
2022-09-02T10:47:04.616Z,32.37
2022-09-02T10:58:00.196Z,31.43
2022-09-02T11:00:31.395Z,32.29
2022-09-02T11:03:22.199Z,32.85
2022-09-02T11:14:32.987Z,31.71
2022-09-02T11:17:43.055Z,31.99
2022-09-02T11:23:05.915Z,31.56
2022-09-02T11:25:44.481Z,31.89
2022-09-02T11:28:48.075Z,30.90
2022-09-02T11:31:30.546Z,29.63
2022-09-02T11:34:25.799Z,30.71
2022-09-02T11:36:53.163Z,30.62
2022-09-02T11:39:54.055Z,31.54
2022-09-02T11:49:08.364Z,30.44
2022-09-02T11:54:39.905Z,29.80
2022-09-02T11:57:14.258Z,29.44
2022-09-02T12:17:09.710Z,25.07
2022-09-02T12:19:44.609Z,25.07
2022-09-02T12:27:45.170Z,24.25
2022-09-02T12:30:13.229Z,23.97
2022-09-02T12:51:58.296Z,22.30
2022-09-02T12:57:19.520Z,19.90
2022-09-02T12:59:47.901Z,21.99
2022-09-02T13:14:55.477Z,19.03
2022-09-02T13:21:05.568Z,19.26
2022-09-02T13:32:34.011Z,18.83
2022-09-02T13:35:07.101Z,18.55
2022-09-02T13:40:21.873Z,16.97
2022-09-02T13:45:35.972Z,18.27
2022-09-02T13:48:11.048Z,17.56
2022-09-02T13:50:44.832Z,17.78
2022-09-02T13:53:49.412Z,17.15
2022-09-02T13:56:17.245Z,15.96
2022-09-02T13:58:52.176Z,16.35
2022-09-02T14:06:41.095Z,17.33
2022-09-02T14:09:20.889Z,18.02
2022-09-02T14:11:49.535Z,18.39
2022-09-02T14:14:21.565Z,17.28
2022-09-02T14:16:48.678Z,17.41
2022-09-02T14:21:57.842Z,16.59
2022-09-02T14:24:29.397Z,16.03
2022-09-02T14:26:59.449Z,17.46
2022-09-02T14:29:31.140Z,16.65
2022-09-02T14:32:22.201Z,16.10
2022-09-02T14:35:10.019Z,15.46
2022-09-02T14:37:57.607Z,16.38
2022-09-02T14:40:43.489Z,18.23
2022-09-02T14:43:14.689Z,16.49
2022-09-02T14:45:50.029Z,16.70
2022-09-02T14:48:26.987Z,17.30
2022-09-02T14:51:06.406Z,17.80
2022-09-02T14:53:37.430Z,18.61
2022-09-02T14:56:06.346Z,19.24
2022-09-02T14:58:33.590Z,18.27
2022-09-02T15:01:02.350Z,17.97
2022-09-02T15:03:31.714Z,17.12
2022-09-02T15:05:59.042Z,15.99
2022-09-02T15:08:26.255Z,16.54
2022-09-02T15:10:54.780Z,17.69
2022-09-02T15:13:32.774Z,19.99
2022-09-02T15:16:01.087Z,18.68
2022-09-02T15:18:28.509Z,19.24
2022-09-02T15:20:57.619Z,18.28
2022-09-02T15:23:25.966Z,17.35
2022-09-02T15:25:54.202Z,20.21
2022-09-02T15:28:21.359Z,20.14
2022-09-02T15:30:48.825Z,20.25
2022-09-02T15:33:17.791Z,20.36
2022-09-02T15:35:47.281Z,19.99
2022-09-02T15:38:14.678Z,20.61
2022-09-02T15:40:41.779Z,20.96
2022-09-02T15:43:08.934Z,20.39
2022-09-02T15:45:44.951Z,19.82
2022-09-02T15:48:12.141Z,19.03
2022-09-02T15:50:39.549Z,18.89
2022-09-02T15:53:07.041Z,18.82
2022-09-02T15:55:35.119Z,20.06
2022-09-02T15:58:02.335Z,20.41
2022-09-02T16:00:32.894Z,20.54
2022-09-02T16:03:01.464Z,21.83
2022-09-02T16:05:30.602Z,22.48
2022-09-02T16:07:57.969Z,23.73
2022-09-02T16:10:25.196Z,24.14
2022-09-02T16:12:52.886Z,25.34
2022-09-02T16:15:20.903Z,25.79
2022-09-02T16:17:51.008Z,26.06
2022-09-02T16:20:21.221Z,26.08
2022-09-02T16:22:49.131Z,27.07
2022-09-02T16:25:16.420Z,27.62
2022-09-02T16:27:59.687Z,27.21
2022-09-02T16:30:26.830Z,28.21
2022-09-02T16:32:54.006Z,28.08
2022-09-02T16:35:21.145Z,28.74
2022-09-02T16:37:48.462Z,29.12
2022-09-02T16:40:21.241Z,28.89
2022-09-02T16:42:49.445Z,30.71
2022-09-02T16:45:16.726Z,29.91
2022-09-02T16:47:43.814Z,30.13
2022-09-02T16:50:12.530Z,30.46
2022-09-02T16:52:41.198Z,31.50
2022-09-02T16:55:08.648Z,31.87
2022-09-02T16:57:35.785Z,31.29
2022-09-02T17:00:05.691Z,31.94
2022-09-02T17:02:32.872Z,31.35
2022-09-02T17:05:00.032Z,31.30
2022-09-02T17:07:27.123Z,32.08
2022-09-02T17:09:54.282Z,32.66
2022-09-02T17:12:21.489Z,32.55
2022-09-02T17:14:49.068Z,32.69
2022-09-02T17:17:17.302Z,32.71
2022-09-02T17:19:45.456Z,32.99
2022-09-02T17:22:12.531Z,33.24
2022-09-02T17:24:41.864Z,33.92
2022-09-02T17:27:09.163Z,35.09
2022-09-02T17:29:51.620Z,33.92
2022-09-02T17:32:20.088Z,35.61
2022-09-02T17:34:50.513Z,34.38
2022-09-02T17:37:17.987Z,34.51
2022-09-02T17:39:46.143Z,34.54
2022-09-02T17:42:14.052Z,35.27
2022-09-02T17:44:42.635Z,35.27
2022-09-02T17:47:16.862Z,35.95
2022-09-02T17:49:44.683Z,35.95
2022-09-02T17:52:16.357Z,35.70
2022-09-02T17:54:44.075Z,35.70
2022-09-02T18:08:46.226Z,36.56
2022-09-02T18:11:14.214Z,36.80
2022-09-02T18:42:21.149Z,40.84
2022-09-02T18:47:45.774Z,42.31
2022-09-02T18:50:49.915Z,41.41
2022-09-02T18:53:28.998Z,41.65
2022-09-02T18:56:05.259Z,42.39
2022-09-02T19:04:02.006Z,42.39
2022-09-02T19:06:35.822Z,41.55
2022-09-02T19:09:08.544Z,41.68
2022-09-02T19:11:38.462Z,42.63
2022-09-02T19:16:47.298Z,42.02
2022-09-02T19:19:16.759Z,42.14
2022-09-02T19:21:51.260Z,41.87
2022-09-02T19:24:26.460Z,42.94
2022-09-02T19:27:01.249Z,43.21
2022-09-02T19:29:28.979Z,43.80
2022-09-02T19:31:56.295Z,43.27
2022-09-02T19:34:35.834Z,44.66
2022-09-02T19:37:06.988Z,44.48
2022-09-02T19:39:35.124Z,44.29
2022-09-02T19:42:02.428Z,44.56
2022-09-02T19:44:29.603Z,44.12
2022-09-02T19:48:02.595Z,45.96
2022-09-02T19:49:45.066Z,46.29
2022-09-02T19:52:12.356Z,45.60
2022-09-02T19:54:41.393Z,45.48
2022-09-02T19:57:08.514Z,46.55
2022-09-02T19:59:35.654Z,46.68
2022-09-02T20:02:04.403Z,46.23
2022-09-02T20:04:31.673Z,45.80
2022-09-02T20:06:59.068Z,46.87
2022-09-02T20:09:29.302Z,47.02
2022-09-02T20:11:57.279Z,46.46
2022-09-02T20:14:24.771Z,46.34
2022-09-02T20:16:58.974Z,46.09
2022-09-02T20:19:26.777Z,45.83
2022-09-02T20:21:54.290Z,45.48
2022-09-02T20:24:27.394Z,46.52
2022-09-02T20:30:14.926Z,45.84
2022-09-02T20:47:02.388Z,46.15
2022-09-02T20:52:19.284Z,46.70
2022-09-02T21:02:54.469Z,45.44
2022-09-02T21:05:32.894Z,45.35
2022-09-02T21:08:05.829Z,45.80
2022-09-02T21:10:40.674Z,46.19
2022-09-02T21:16:20.035Z,45.91
2022-09-02T21:19:16.059Z,45.27
2022-09-02T21:21:53.912Z,45.62
2022-09-02T21:27:33.677Z,45.71
2022-09-02T21:32:43.925Z,46.36
2022-09-02T21:35:18.756Z,44.12
2022-09-02T21:37:46.675Z,45.69
2022-09-02T21:40:20.042Z,46.60
2022-09-02T21:43:22.763Z,46.70
2022-09-02T21:51:34.087Z,47.61
2022-09-02T22:13:40.713Z,50.16
2022-09-02T22:18:55.320Z,48.37
2022-09-02T22:24:00.769Z,51.27
2022-09-02T22:26:38.750Z,51.02
2022-09-02T22:29:17.754Z,51.57
2022-09-02T22:31:48.894Z,51.63
2022-09-02T22:34:18.470Z,51.89
2022-09-02T22:39:38.977Z,52.39
2022-09-02T22:42:21.355Z,52.46
2022-09-02T22:45:23.629Z,52.60
2022-09-02T22:48:24.882Z,52.23
2022-09-02T22:51:19.291Z,52.42
2022-09-02T22:53:50.454Z,53.02
2022-09-02T22:56:37.254Z,53.11
2022-09-02T23:02:23.923Z,53.54
2022-09-02T23:07:32.233Z,52.53
2022-09-02T23:10:01.103Z,54.51
2022-09-02T23:12:56.066Z,53.38
2022-09-02T23:15:35.663Z,52.95
2022-09-02T23:21:19.482Z,53.61
2022-09-02T23:29:29.614Z,53.87
2022-09-02T23:41:09.441Z,53.36
2022-09-02T23:43:40.209Z,51.80
2022-09-02T23:46:46.718Z,51.45
